Time;durP1;ratioP1;P1;durP2;ratioP2;P2;SDS_P1;SDS_P2;PMS_P1;PMS_P2;Temp;Humidity;BMP_temperature;BMP_pressure;BME280_temperature;BME280_humidity;BME280_pressure;Samples;Min_cycle;Max_cycle;Signal;HPM_P1;HPM_P2
2022/07/04 00:02:00;;;;;;;7.88;0.70;;;;;;;;;;5054304;28;20069;-73
2022/07/04 00:04:25;;;;;;;2.08;1.20;;;;;;;;;;5054383;28;20044;-72
2022/07/04 00:06:51;;;;;;;0.30;0.30;;;;;;;;;;5054394;28;20032;-74
2022/07/04 00:09:16;;;;;;;0.30;0.30;;;;;;;;;;5054707;28;20025;-74
2022/07/04 00:11:42;;;;;;;0.10;0.10;;;;;;;;;;5036523;28;20476;-74
2022/07/04 00:14:07;;;;;;;23.20;1.20;;;;;;;;;;5053036;28;20468;-74
2022/07/04 00:16:34;;;;;;;0.20;0.20;;;;;;;;;;5053987;28;20044;-73
2022/07/04 00:19:00;;;;;;;1.02;0.95;;;;;;;;;;5036400;28;20043;-73
2022/07/04 00:21:25;;;;;;;0.10;0.10;;;;;;;;;;5054094;28;20029;-74
2022/07/04 00:23:51;;;;;;;0.20;0.20;;;;;;;;;;5036497;28;20033;-74
2022/07/04 00:26:16;;;;;;;0.20;0.20;;;;;;;;;;5054140;28;20061;-73
2022/07/04 00:28:42;;;;;;;0.20;0.20;;;;;;;;;;5036133;28;20036;-73
2022/07/04 00:31:07;;;;;;;0.20;0.20;;;;;;;;;;5053631;28;20045;-73
2022/07/04 00:33:33;;;;;;;0.20;0.20;;;;;;;;;;5053754;28;20105;-73
2022/07/04 00:35:58;;;;;;;0.10;0.10;;;;;;;;;;5053468;28;20048;-74
2022/07/04 00:38:24;;;;;;;0.10;0.10;;;;;;;;;;5019608;28;20052;-74
2022/07/04 00:40:50;;;;;;;0.20;0.20;;;;;;;;;;5052661;28;20095;-75
2022/07/04 00:43:25;;;;;;;0.20;0.20;;;;;;;;;;5036155;28;20523;-73
2022/07/04 00:45:51;;;;;;;0.20;0.20;;;;;;;;;;5035775;28;20072;-73
2022/07/04 00:48:16;;;;;;;0.20;0.20;;;;;;;;;;5053874;28;20064;-73
2022/07/04 00:50:43;;;;;;;0.20;0.20;;;;;;;;;;5053677;28;20040;-72
2022/07/04 00:53:08;;;;;;;0.20;0.20;;;;;;;;;;5035186;28;20527;-74
2022/07/04 00:55:34;;;;;;;0.20;0.20;;;;;;;;;;5053575;28;20057;-74
2022/07/04 00:57:59;;;;;;;0.20;0.20;;;;;;;;;;5053466;28;20029;-74
2022/07/04 01:00:25;;;;;;;0.20;0.20;;;;;;;;;;5053343;28;20116;-73
2022/07/04 01:02:50;;;;;;;0.20;0.20;;;;;;;;;;5035597;28;20063;-74
2022/07/04 01:05:16;;;;;;;0.10;0.10;;;;;;;;;;5053525;28;20132;-73
2022/07/04 01:07:42;;;;;;;0.20;0.20;;;;;;;;;;5053398;28;20499;-73
2022/07/04 01:10:08;;;;;;;0.20;0.20;;;;;;;;;;5035109;28;20420;-74
2022/07/04 01:12:35;;;;;;;0.20;0.20;;;;;;;;;;5053035;28;20045;-74
2022/07/04 01:15:00;;;;;;;0.20;0.20;;;;;;;;;;5053154;28;20132;-74
2022/07/04 01:17:26;;;;;;;0.20;0.20;;;;;;;;;;5053236;28;20045;-73
2022/07/04 01:19:51;;;;;;;0.30;0.30;;;;;;;;;;5053115;28;20025;-74
2022/07/04 01:22:19;;;;;;;0.73;0.73;;;;;;;;;;5053287;28;20028;-75
2022/07/04 01:24:44;;;;;;;0.20;0.20;;;;;;;;;;5053196;28;20041;-74
2022/07/04 01:27:10;;;;;;;0.20;0.20;;;;;;;;;;5053138;28;20116;-74
2022/07/04 01:29:35;;;;;;;0.20;0.20;;;;;;;;;;5053039;28;20143;-74
2022/07/04 01:32:04;;;;;;;0.20;0.20;;;;;;;;;;5053162;28;20445;-73
2022/07/04 01:34:30;;;;;;;;;;;;;;;;;;5053385;28;20029;-73
2022/07/04 01:36:55;;;;;;;0.20;0.20;;;;;;;;;;5053052;28;19913;-73
2022/07/04 01:39:21;;;;;;;0.20;0.20;;;;;;;;;;5053139;28;20031;-74
2022/07/04 01:41:46;;;;;;;0.20;0.20;;;;;;;;;;5053098;28;20102;-73
2022/07/04 01:44:12;;;;;;;0.10;0.10;;;;;;;;;;5052076;28;20060;-73
2022/07/04 01:46:37;;;;;;;0.50;0.50;;;;;;;;;;5053128;28;20029;-73
2022/07/04 01:49:03;;;;;;;0.20;0.20;;;;;;;;;;5052727;28;20083;-72
2022/07/04 01:51:28;;;;;;;0.10;0.10;;;;;;;;;;5052788;28;20095;-73
2022/07/04 01:53:54;;;;;;;0.10;0.10;;;;;;;;;;5053129;28;20067;-73
2022/07/04 01:56:20;;;;;;;0.13;0.13;;;;;;;;;;5052761;28;20025;-76
2022/07/04 01:58:45;;;;;;;0.20;0.20;;;;;;;;;;5034946;28;20124;-73
2022/07/04 02:01:29;;;;;;;0.17;0.17;;;;;;;;;;5052972;28;20029;-73
2022/07/04 02:03:55;;;;;;;0.10;0.10;;;;;;;;;;5035036;28;20033;-73
2022/07/04 02:06:21;;;;;;;0.20;0.20;;;;;;;;;;5052605;28;20033;-75
2022/07/04 02:09:19;;;;;;;0.20;0.20;;;;;;;;;;5052745;28;20430;-74
2022/07/04 02:14:26;;;;;;;0.20;0.20;;;;;;;;;;5044461;28;20040;-74
2022/07/04 02:16:53;;;;;;;0.20;0.20;;;;;;;;;;5052099;28;20190;-75
2022/07/04 02:19:18;;;;;;;0.20;0.20;;;;;;;;;;5053721;28;20482;-73
2022/07/04 02:21:44;;;;;;;0.20;0.20;;;;;;;;;;5056957;28;20036;-74
2022/07/04 02:24:10;;;;;;;0.10;0.10;;;;;;;;;;5057137;28;20033;-75
2022/07/04 02:26:35;;;;;;;0.20;0.20;;;;;;;;;;5053320;28;20553;-74
2022/07/04 02:29:01;;;;;;;0.20;0.20;;;;;;;;;;5052107;28;20041;-73
2022/07/04 02:31:27;;;;;;;0.10;0.10;;;;;;;;;;5052162;28;20091;-74
2022/07/04 02:33:52;;;;;;;0.20;0.20;;;;;;;;;;5052329;28;20111;-74
2022/07/04 02:36:18;;;;;;;0.10;0.10;;;;;;;;;;5050823;28;20041;-74
2022/07/04 02:38:43;;;;;;;0.17;0.17;;;;;;;;;;5052058;28;20035;-73
2022/07/04 02:41:09;;;;;;;0.20;0.20;;;;;;;;;;5052275;28;20037;-74
2022/07/04 02:43:35;;;;;;;0.20;0.20;;;;;;;;;;5050834;28;20035;-72
2022/07/04 02:46:00;;;;;;;0.10;0.10;;;;;;;;;;5052109;28;20033;-74
2022/07/04 02:48:26;;;;;;;0.20;0.20;;;;;;;;;;5051984;28;20029;-73
2022/07/04 02:50:51;;;;;;;0.20;0.20;;;;;;;;;;5051682;28;20029;-74
2022/07/04 02:53:17;;;;;;;0.30;0.30;;;;;;;;;;5032972;28;20034;-73
2022/07/04 02:55:42;;;;;;;0.20;0.20;;;;;;;;;;5050832;28;20032;-72
2022/07/04 02:58:07;;;;;;;0.20;0.20;;;;;;;;;;5052376;28;20045;-72
2022/07/04 03:00:33;;;;;;;0.10;0.10;;;;;;;;;;5052266;28;20037;-73
2022/07/04 03:02:58;;;;;;;0.20;0.20;;;;;;;;;;5046230;28;20037;-76
2022/07/04 03:05:24;;;;;;;0.10;0.10;;;;;;;;;;5030425;28;20041;-74
2022/07/04 03:07:49;;;;;;;0.20;0.20;;;;;;;;;;5048389;28;20040;-75
2022/07/04 03:10:15;;;;;;;0.20;0.20;;;;;;;;;;5047944;28;20123;-73
2022/07/04 03:12:40;;;;;;;0.20;0.20;;;;;;;;;;5047373;28;20045;-74
2022/07/04 03:15:06;;;;;;;0.17;0.17;;;;;;;;;;5048469;28;20913;-75
2022/07/04 03:17:32;;;;;;;0.20;0.20;;;;;;;;;;5046114;28;20040;-73
2022/07/04 03:19:57;;;;;;;0.10;0.10;;;;;;;;;;5047352;28;20041;-73
2022/07/04 03:22:23;;;;;;;0.20;0.20;;;;;;;;;;5047287;28;20108;-73
2022/07/04 03:24:48;;;;;;;0.20;0.20;;;;;;;;;;5047515;28;20095;-74
2022/07/04 03:27:14;;;;;;;0.20;0.20;;;;;;;;;;5047906;28;20048;-73
2022/07/04 03:29:39;;;;;;;0.20;0.20;;;;;;;;;;5047296;28;20420;-72
2022/07/04 03:32:05;;;;;;;0.20;0.20;;;;;;;;;;5047330;28;20047;-74
2022/07/04 03:34:30;;;;;;;0.20;0.20;;;;;;;;;;5050765;28;20119;-74
2022/07/04 03:36:56;;;;;;;0.20;0.20;;;;;;;;;;5050982;28;20118;-74
2022/07/04 03:39:21;;;;;;;0.30;0.30;;;;;;;;;;5032813;28;20044;-74
2022/07/04 03:41:47;;;;;;;0.15;0.15;;;;;;;;;;5050940;28;20037;-74
2022/07/04 03:44:12;;;;;;;0.10;0.10;;;;;;;;;;5050719;28;20036;-74
2022/07/04 03:46:38;;;;;;;0.20;0.20;;;;;;;;;;5050238;28;20522;-72
2022/07/04 03:49:03;;;;;;;0.10;0.10;;;;;;;;;;5050350;28;20053;-74
2022/07/04 03:51:29;;;;;;;0.10;0.10;;;;;;;;;;5050264;28;20476;-74
2022/07/04 03:53:54;;;;;;;0.20;0.20;;;;;;;;;;5050589;28;20029;-74
2022/07/04 03:56:20;;;;;;;0.20;0.20;;;;;;;;;;5032674;28;20029;-73
2022/07/04 03:58:48;;;;;;;0.20;0.20;;;;;;;;;;5049258;28;20433;-73
2022/07/04 04:01:17;;;;;;;0.20;0.20;;;;;;;;;;5049761;28;20461;-74
2022/07/04 04:06:26;;;;;;;0.20;0.20;;;;;;;;;;5050659;28;20033;-72
2022/07/04 04:08:52;;;;;;;0.20;0.20;;;;;;;;;;5048791;28;20044;-74
2022/07/04 04:11:17;;;;;;;0.13;0.13;;;;;;;;;;5050100;28;20086;-81
2022/07/04 04:13:43;;;;;;;0.40;0.40;;;;;;;;;;5049133;28;20174;-74
2022/07/04 04:16:08;;;;;;;0.25;0.25;;;;;;;;;;5050229;28;20044;-74
2022/07/04 04:18:34;;;;;;;0.17;0.17;;;;;;;;;;5050216;28;20087;-74
2022/07/04 04:20:59;;;;;;;0.20;0.20;;;;;;;;;;5049692;28;20037;-76
2022/07/04 04:23:25;;;;;;;0.20;0.20;;;;;;;;;;5032636;28;20051;-74
2022/07/04 04:25:50;;;;;;;0.17;0.17;;;;;;;;;;5050300;28;20476;-75
2022/07/04 04:28:16;;;;;;;0.20;0.20;;;;;;;;;;5032703;28;20392;-73
2022/07/04 04:30:41;;;;;;;0.20;0.20;;;;;;;;;;5049555;28;20072;-73
2022/07/04 04:33:06;;;;;;;0.57;0.50;;;;;;;;;;5049657;28;20094;-74
2022/07/04 04:35:32;;;;;;;0.20;0.20;;;;;;;;;;5048596;28;20140;-75
2022/07/04 04:37:58;;;;;;;0.20;0.20;;;;;;;;;;5049941;28;20078;-75
2022/07/04 04:40:23;;;;;;;0.82;0.82;;;;;;;;;;5050086;28;20041;-75
2022/07/04 04:42:48;;;;;;;0.25;0.25;;;;;;;;;;5050114;28;20043;-73
2022/07/04 04:45:14;;;;;;;0.10;0.10;;;;;;;;;;5048217;28;20071;-79
2022/07/04 04:47:40;;;;;;;0.20;0.20;;;;;;;;;;5049898;28;20033;-73
2022/07/04 04:50:10;;;;;;;0.20;0.20;;;;;;;;;;5049836;28;20095;-74
2022/07/04 04:52:35;;;;;;;0.20;0.20;;;;;;;;;;5048011;28;20043;-74
2022/07/04 04:55:01;;;;;;;0.63;0.63;;;;;;;;;;5049657;28;20108;-74
2022/07/04 04:57:26;;;;;;;0.20;0.20;;;;;;;;;;5049087;28;20028;-75
2022/07/04 04:59:52;;;;;;;0.20;0.20;;;;;;;;;;5049828;28;20037;-74
2022/07/04 05:02:17;;;;;;;0.20;0.20;;;;;;;;;;5029281;28;20053;-75
2022/07/04 05:04:43;;;;;;;0.60;0.60;;;;;;;;;;5048980;28;20032;-74
2022/07/04 05:07:08;;;;;;;0.35;0.35;;;;;;;;;;5031322;28;20039;-73
2022/07/04 05:09:34;;;;;;;0.50;0.50;;;;;;;;;;5042579;28;20028;-77
2022/07/04 05:11:59;;;;;;;0.20;0.20;;;;;;;;;;5049332;28;20067;-73
2022/07/04 05:14:25;;;;;;;0.20;0.20;;;;;;;;;;5050016;28;20068;-73
2022/07/04 05:16:50;;;;;;;0.20;0.20;;;;;;;;;;5049387;28;20037;-75
2022/07/04 05:19:16;;;;;;;3.83;3.22;;;;;;;;;;5047954;28;20048;-79
2022/07/04 05:21:41;;;;;;;0.20;0.20;;;;;;;;;;5030388;28;20477;-73
2022/07/04 05:24:07;;;;;;;0.20;0.20;;;;;;;;;;5031391;28;20037;-73
2022/07/04 05:26:32;;;;;;;2.08;1.17;;;;;;;;;;5031332;28;20117;-79
2022/07/04 05:28:58;;;;;;;0.30;0.30;;;;;;;;;;5031777;28;20091;-74
2022/07/04 05:31:24;;;;;;;2.30;1.05;;;;;;;;;;5031030;28;20037;-73
2022/07/04 05:33:50;;;;;;;0.55;0.55;;;;;;;;;;5031007;28;20033;-74
2022/07/04 05:36:16;;;;;;;0.25;0.25;;;;;;;;;;5021141;28;20033;-76
2022/07/04 05:38:41;;;;;;;0.32;0.32;;;;;;;;;;5028138;28;20037;-76
2022/07/04 05:41:07;;;;;;;0.38;0.38;;;;;;;;;;5038025;28;20136;-73
2022/07/04 05:43:32;;;;;;;0.60;0.30;;;;;;;;;;5028708;28;20064;-72
2022/07/04 05:45:58;;;;;;;10.32;1.17;;;;;;;;;;5029369;28;20033;-73
2022/07/04 05:48:23;;;;;;;0.20;0.20;;;;;;;;;;5032760;28;20025;-74
2022/07/04 05:50:48;;;;;;;0.50;0.50;;;;;;;;;;5048452;28;20043;-75
2022/07/04 05:53:14;;;;;;;0.30;0.30;;;;;;;;;;5049085;28;20120;-73
2022/07/04 05:55:39;;;;;;;0.47;0.47;;;;;;;;;;5029711;28;20033;-76
2022/07/04 05:58:05;;;;;;;0.20;0.20;;;;;;;;;;5049039;28;20120;-77
2022/07/04 06:00:30;;;;;;;0.30;0.30;;;;;;;;;;5048716;28;20029;-77
2022/07/04 06:02:56;;;;;;;0.20;0.20;;;;;;;;;;5048677;28;20033;-73
2022/07/04 06:05:21;;;;;;;0.20;0.20;;;;;;;;;;5048221;28;20032;-77
2022/07/04 06:07:48;;;;;;;0.20;0.20;;;;;;;;;;5030782;28;20043;-73
2022/07/04 06:10:14;;;;;;;0.20;0.20;;;;;;;;;;5048695;28;20109;-73
2022/07/04 06:12:39;;;;;;;0.20;0.20;;;;;;;;;;5048599;28;20466;-73
2022/07/04 06:15:06;;;;;;;0.20;0.20;;;;;;;;;;5048685;28;20392;-75
2022/07/04 06:17:31;;;;;;;0.38;0.38;;;;;;;;;;5048363;28;20040;-77
2022/07/04 06:19:57;;;;;;;1.27;0.85;;;;;;;;;;5048632;28;20120;-74
2022/07/04 06:22:22;;;;;;;0.30;0.30;;;;;;;;;;5047483;28;20037;-74
2022/07/04 06:24:49;;;;;;;0.28;0.28;;;;;;;;;;5029957;28;20389;-73
2022/07/04 06:27:15;;;;;;;2.08;1.90;;;;;;;;;;5047752;28;20464;-73
2022/07/04 06:29:41;;;;;;;1.02;0.65;;;;;;;;;;5047578;28;20063;-75
2022/07/04 06:32:06;;;;;;;0.30;0.30;;;;;;;;;;5042081;28;20519;-73
2022/07/04 06:37:17;;;;;;;0.30;0.30;;;;;;;;;;5044268;28;20033;-78
2022/07/04 06:39:43;;;;;;;0.30;0.30;;;;;;;;;;5010600;28;20501;-77
2022/07/04 06:42:08;;;;;;;0.20;0.20;;;;;;;;;;5032703;28;20111;-77
2022/07/04 06:44:34;;;;;;;0.45;0.45;;;;;;;;;;5012905;28;20037;-81
2022/07/04 06:46:59;;;;;;;0.30;0.30;;;;;;;;;;5048839;28;20170;-82
2022/07/04 06:49:24;;;;;;;0.25;0.25;;;;;;;;;;5048389;28;20036;-77
2022/07/04 06:51:50;;;;;;;0.30;0.30;;;;;;;;;;5026249;28;20048;-79
2022/07/04 06:54:16;;;;;;;0.30;0.30;;;;;;;;;;5048572;28;20037;-83
2022/07/04 06:56:41;;;;;;;1.60;1.50;;;;;;;;;;5036458;28;20041;-78
2022/07/04 06:59:06;;;;;;;0.40;0.40;;;;;;;;;;5048216;28;20067;-76
2022/07/04 07:01:32;;;;;;;0.30;0.30;;;;;;;;;;5047391;28;20039;-77
2022/07/04 07:03:57;;;;;;;0.30;0.30;;;;;;;;;;5029290;28;20045;-81
2022/07/04 07:06:23;;;;;;;0.40;0.40;;;;;;;;;;5048119;28;20043;-81
2022/07/04 07:08:49;;;;;;;0.30;0.30;;;;;;;;;;5047330;28;20169;-79
2022/07/04 07:11:17;;;;;;;0.30;0.30;;;;;;;;;;5039540;28;20116;-77
2022/07/04 07:13:43;;;;;;;0.40;0.40;;;;;;;;;;5049626;28;20484;-79
2022/07/04 07:16:09;;;;;;;1.67;1.58;;;;;;;;;;5050184;28;20069;-82
2022/07/04 07:18:34;;;;;;;0.50;0.50;;;;;;;;;;5028542;28;20055;-78
2022/07/04 07:21:00;;;;;;;0.32;0.32;;;;;;;;;;5016885;28;20029;-78
2022/07/04 07:23:26;;;;;;;0.20;0.20;;;;;;;;;;5050139;28;20029;-80
2022/07/04 07:25:51;;;;;;;0.30;0.30;;;;;;;;;;5028330;28;20393;-77
2022/07/04 07:28:18;;;;;;;0.38;0.38;;;;;;;;;;5048678;28;20439;-78
2022/07/04 07:30:43;;;;;;;0.30;0.30;;;;;;;;;;5047725;28;20037;-77
2022/07/04 07:33:09;;;;;;;0.40;0.40;;;;;;;;;;5049157;28;20060;-79
2022/07/04 07:35:34;;;;;;;0.35;0.35;;;;;;;;;;5046507;28;20033;-80
2022/07/04 07:38:00;;;;;;;0.40;0.40;;;;;;;;;;5049351;28;20056;-79
2022/07/04 07:40:25;;;;;;;0.85;0.85;;;;;;;;;;5049150;28;20041;-77
2022/07/04 07:42:52;;;;;;;0.40;0.40;;;;;;;;;;5048975;28;20033;-78
2022/07/04 07:45:17;;;;;;;0.30;0.30;;;;;;;;;;5048328;28;20037;-85
2022/07/04 07:47:43;;;;;;;1.02;1.02;;;;;;;;;;5030717;28;20040;-79
2022/07/04 07:50:09;;;;;;;0.38;0.38;;;;;;;;;;5049084;28;20131;-81
2022/07/04 07:52:34;;;;;;;0.65;0.65;;;;;;;;;;5049043;28;20036;-76
2022/07/04 07:55:00;;;;;;;0.38;0.38;;;;;;;;;;5049251;28;20037;-80
2022/07/04 07:57:25;;;;;;;0.40;0.40;;;;;;;;;;5048948;28;20043;-78
2022/07/04 07:59:51;;;;;;;0.40;0.40;;;;;;;;;;5048541;28;20458;-84
2022/07/04 08:02:16;;;;;;;0.95;0.88;;;;;;;;;;5048334;28;20053;-78
2022/07/04 08:04:41;;;;;;;0.70;0.70;;;;;;;;;;5048648;28;20403;-80
2022/07/04 08:07:08;;;;;;;0.60;0.60;;;;;;;;;;5048157;28;20150;-80
2022/07/04 08:09:34;;;;;;;0.60;0.60;;;;;;;;;;5047842;28;20025;-80
2022/07/04 08:12:01;;;;;;;0.40;0.40;;;;;;;;;;5030638;28;20071;-77
2022/07/04 08:14:26;;;;;;;0.45;0.45;;;;;;;;;;5048140;28;20029;-79
2022/07/04 08:16:52;;;;;;;0.50;0.50;;;;;;;;;;5047305;28;20396;-82
2022/07/04 08:19:17;;;;;;;0.40;0.40;;;;;;;;;;5046326;28;20029;-82
2022/07/04 08:21:43;;;;;;;0.60;0.60;;;;;;;;;;5037751;28;20029;-80
2022/07/04 08:24:08;;;;;;;0.45;0.45;;;;;;;;;;5029420;28;20507;-80
2022/07/04 08:26:34;;;;;;;0.40;0.40;;;;;;;;;;5030814;28;20021;-79
2022/07/04 08:28:59;;;;;;;0.45;0.45;;;;;;;;;;5048592;28;20119;-80
2022/07/04 08:31:28;;;;;;;1.83;1.35;;;;;;;;;;5047945;28;20041;-80
2022/07/04 08:33:53;;;;;;;1.88;0.85;;;;;;;;;;5048752;28;20412;-80
2022/07/04 08:36:19;;;;;;;0.40;0.40;;;;;;;;;;5030217;28;20384;-80
2022/07/04 08:38:45;;;;;;;2.17;1.98;;;;;;;;;;5048526;28;20036;-80
2022/07/04 08:41:11;;;;;;;2.70;2.60;;;;;;;;;;5045811;28;20037;-81
2022/07/04 08:43:38;;;;;;;0.30;0.30;;;;;;;;;;5046840;28;20048;-79
2022/07/04 08:46:04;;;;;;;0.50;0.50;;;;;;;;;;5047898;28;20088;-81
2022/07/04 08:48:30;;;;;;;0.40;0.40;;;;;;;;;;5047881;28;20855;-79
2022/07/04 08:50:57;;;;;;;0.60;0.60;;;;;;;;;;5047822;28;20029;-80
2022/07/04 08:53:24;;;;;;;1.30;1.10;;;;;;;;;;5029686;28;20068;-80
2022/07/04 08:58:34;;;;;;;2.38;1.60;;;;;;;;;;5048258;28;20124;-78
2022/07/04 09:01:02;;;;;;;0.30;0.30;;;;;;;;;;5029760;28;20453;-81
2022/07/04 09:03:28;;;;;;;0.32;0.32;;;;;;;;;;5046547;28;20091;-80
2022/07/04 09:05:54;;;;;;;0.73;0.73;;;;;;;;;;5042250;28;20045;-84
2022/07/04 09:08:20;;;;;;;1.23;0.82;;;;;;;;;;5047440;28;20072;-78
2022/07/04 09:10:46;;;;;;;0.30;0.30;;;;;;;;;;5029822;28;20118;-78
2022/07/04 09:13:14;;;;;;;0.40;0.40;;;;;;;;;;5047099;28;20036;-80
2022/07/04 09:15:40;;;;;;;0.40;0.40;;;;;;;;;;5047144;28;20043;-80
2022/07/04 09:18:06;;;;;;;1.10;0.52;;;;;;;;;;5045892;28;20060;-80
2022/07/04 09:20:32;;;;;;;0.40;0.40;;;;;;;;;;5047134;28;20056;-80
2022/07/04 09:22:59;;;;;;;0.50;0.50;;;;;;;;;;5047265;28;20036;-78
2022/07/04 09:25:25;;;;;;;0.38;0.38;;;;;;;;;;5046902;28;20033;-79
2022/07/04 09:27:55;;;;;;;0.40;0.40;;;;;;;;;;5029683;28;20140;-80
2022/07/04 09:30:22;;;;;;;0.35;0.35;;;;;;;;;;5045616;28;20052;-84
2022/07/04 09:32:50;;;;;;;0.40;0.40;;;;;;;;;;5047115;28;20072;-77
2022/07/04 09:35:21;;;;;;;1.45;1.08;;;;;;;;;;5033221;28;20041;-78
2022/07/04 09:37:47;;;;;;;0.40;0.40;;;;;;;;;;5047231;28;20435;-79
2022/07/04 09:40:24;;;;;;;0.50;0.50;;;;;;;;;;5047121;28;20124;-80
2022/07/04 09:42:49;;;;;;;0.45;0.45;;;;;;;;;;5047119;28;20044;-79
2022/07/04 09:45:15;;;;;;;0.45;0.45;;;;;;;;;;5028822;28;20392;-79
2022/07/04 09:47:41;;;;;;;3.20;1.58;;;;;;;;;;5046667;28;20424;-80
2022/07/04 09:50:08;;;;;;;0.30;0.30;;;;;;;;;;5046541;28;20432;-81
2022/07/04 09:52:51;;;;;;;0.40;0.40;;;;;;;;;;5043303;28;20091;-78
2022/07/04 09:55:22;;;;;;;0.40;0.40;;;;;;;;;;5042965;28;20496;-83
2022/07/04 09:57:48;;;;;;;1.58;1.48;;;;;;;;;;5026864;28;20041;-79
2022/07/04 10:00:24;;;;;;;0.40;0.40;;;;;;;;;;5039406;28;20037;-79
2022/07/04 10:02:51;;;;;;;0.40;0.40;;;;;;;;;;5041153;28;20389;-78
2022/07/04 10:05:20;;;;;;;0.40;0.40;;;;;;;;;;5046532;28;20043;-79
2022/07/04 10:07:47;;;;;;;1.35;1.25;;;;;;;;;;5046681;28;20090;-78
2022/07/04 10:10:26;;;;;;;0.57;0.57;;;;;;;;;;5046753;28;20515;-76
2022/07/04 10:12:53;;;;;;;0.40;0.40;;;;;;;;;;5045174;28;20095;-79
2022/07/04 10:15:18;;;;;;;0.57;0.57;;;;;;;;;;5046462;28;20527;-80
2022/07/04 10:17:44;;;;;;;0.50;0.50;;;;;;;;;;5046321;28;20067;-79
2022/07/04 10:20:10;;;;;;;0.52;0.52;;;;;;;;;;5044748;28;20060;-80
2022/07/04 10:22:37;;;;;;;0.40;0.40;;;;;;;;;;5052775;28;20044;-83
2022/07/04 10:25:03;;;;;;;0.50;0.50;;;;;;;;;;5041384;28;20444;-82
2022/07/04 10:27:28;;;;;;;0.50;0.50;;;;;;;;;;5045819;28;20072;-78
2022/07/04 10:29:54;;;;;;;0.50;0.50;;;;;;;;;;5045947;28;20093;-80
2022/07/04 10:32:20;;;;;;;0.60;0.60;;;;;;;;;;5045442;28;20045;-81
2022/07/04 10:34:45;;;;;;;0.90;0.88;;;;;;;;;;5046419;28;20041;-80
2022/07/04 10:37:11;;;;;;;0.40;0.40;;;;;;;;;;5045704;28;20033;-79
2022/07/04 10:39:38;;;;;;;0.55;0.55;;;;;;;;;;5044914;28;20071;-79
2022/07/04 10:42:06;;;;;;;3.08;1.60;;;;;;;;;;5043321;28;20124;-79
2022/07/04 10:44:37;;;;;;;0.80;0.80;;;;;;;;;;5049389;28;20025;-77
2022/07/04 10:47:03;;;;;;;1.05;0.93;;;;;;;;;;5049910;28;20068;-79
2022/07/04 10:49:29;;;;;;;0.57;0.57;;;;;;;;;;5049155;28;20045;-81
2022/07/04 10:51:56;;;;;;;0.45;0.45;;;;;;;;;;5048237;28;20087;-79
2022/07/04 10:54:21;;;;;;;0.70;0.70;;;;;;;;;;5049575;28;20072;-81
2022/07/04 10:56:48;;;;;;;0.60;0.60;;;;;;;;;;5048332;28;20057;-78
2022/07/04 10:59:16;;;;;;;0.63;0.63;;;;;;;;;;5049331;28;20400;-77
2022/07/04 11:01:46;;;;;;;3.85;1.50;;;;;;;;;;5061616;28;20055;-81
2022/07/04 11:04:11;;;;;;;0.75;0.73;;;;;;;;;;5063160;28;20037;-79
2022/07/04 11:06:37;;;;;;;0.70;0.70;;;;;;;;;;5061830;28;20060;-78
2022/07/04 11:09:12;;;;;;;1.58;1.00;;;;;;;;;;5050138;28;20025;-76
2022/07/04 11:11:57;;;;;;;0.85;0.80;;;;;;;;;;5049646;28;20033;-77
2022/07/04 11:14:35;;;;;;;0.60;0.60;;;;;;;;;;5049363;28;20551;-79
2022/07/04 11:17:00;;;;;;;0.80;0.80;;;;;;;;;;5044288;28;20044;-79
2022/07/04 11:19:27;;;;;;;0.43;0.43;;;;;;;;;;5048326;28;20037;-79
2022/07/04 11:21:56;;;;;;;0.50;0.50;;;;;;;;;;5047345;28;20036;-77
2022/07/04 11:24:22;;;;;;;0.68;0.68;;;;;;;;;;5027099;28;20037;-78
2022/07/04 11:26:47;;;;;;;4.45;1.20;;;;;;;;;;5032965;28;20037;-79
2022/07/04 11:29:13;;;;;;;1.23;1.05;;;;;;;;;;5046816;28;20040;-79
2022/07/04 11:31:44;;;;;;;2.30;1.17;;;;;;;;;;5018271;28;20132;-78
2022/07/04 11:34:09;;;;;;;3.22;1.35;;;;;;;;;;5045368;28;20111;-79
2022/07/04 11:36:35;;;;;;;2.38;1.05;;;;;;;;;;5046493;28;20492;-79
2022/07/04 11:39:02;;;;;;;1.38;1.27;;;;;;;;;;5045446;28;20492;-79
2022/07/04 11:47:20;;;;;;;1.60;1.50;;;;;;;;;;5030273;28;20048;-77
2022/07/04 11:49:47;;;;;;;1.17;0.80;;;;;;;;;;5037836;28;20033;-79
2022/07/04 11:52:13;;;;;;;9.25;3.38;;;;;;;;;;5040857;28;20037;-81
2022/07/04 11:54:39;;;;;;;1.10;0.85;;;;;;;;;;5039652;28;20120;-77
2022/07/04 11:57:16;;;;;;;4.22;1.45;;;;;;;;;;5044181;28;20571;-82
2022/07/04 11:59:42;;;;;;;9.50;1.83;;;;;;;;;;5030829;28;20309;-80
2022/07/04 12:02:14;;;;;;;1.95;1.58;;;;;;;;;;5042550;28;20167;-80
2022/07/04 12:04:41;;;;;;;1.42;1.15;;;;;;;;;;5029770;28;20026;-79
2022/07/04 12:07:13;;;;;;;0.50;0.50;;;;;;;;;;5032014;28;20051;-81
2022/07/04 12:09:39;;;;;;;1.85;1.38;;;;;;;;;;5048017;28;20403;-77
2022/07/04 12:12:05;;;;;;;0.57;0.57;;;;;;;;;;5045672;28;20033;-82
2022/07/04 12:14:30;;;;;;;2.47;1.67;;;;;;;;;;5046297;28;20037;-81
2022/07/04 12:17:28;;;;;;;0.40;0.40;;;;;;;;;;5030387;28;20041;-79
2022/07/04 12:19:55;;;;;;;11.63;1.85;;;;;;;;;;5021118;28;20045;-79
2022/07/04 12:22:35;;;;;;;1.67;1.27;;;;;;;;;;5046560;28;20040;-79
2022/07/04 12:25:02;;;;;;;3.72;1.60;;;;;;;;;;5047661;28;20041;-77
2022/07/04 12:27:28;;;;;;;1.83;0.95;;;;;;;;;;5044480;28;20034;-74
2022/07/04 12:29:54;;;;;;;4.47;1.60;;;;;;;;;;5047947;28;20040;-75
2022/07/04 12:32:20;;;;;;;3.35;1.38;;;;;;;;;;5046620;28;20048;-75
2022/07/04 12:34:46;;;;;;;0.90;0.68;;;;;;;;;;5041998;28;20041;-72
2022/07/04 12:37:12;;;;;;;1.95;0.80;;;;;;;;;;5019398;28;20117;-70
2022/07/04 12:39:40;;;;;;;2.75;1.73;;;;;;;;;;5041235;28;20071;-68
2022/07/04 12:42:07;;;;;;;1.48;0.88;;;;;;;;;;5045316;28;20484;-78
2022/07/04 12:44:32;;;;;;;2.45;1.52;;;;;;;;;;5048127;28;20040;-73
2022/07/04 12:46:58;;;;;;;2.97;1.52;;;;;;;;;;5041505;28;20040;-79
2022/07/04 12:49:24;;;;;;;0.90;0.77;;;;;;;;;;5014914;28;20025;-72
2022/07/04 12:51:49;;;;;;;5.07;1.42;;;;;;;;;;5029516;28;20045;-72
2022/07/04 12:54:15;;;;;;;3.08;1.65;;;;;;;;;;5045682;28;20036;-70
2022/07/04 12:56:41;;;;;;;2.72;1.60;;;;;;;;;;5048108;28;20047;-67
2022/07/04 12:59:12;;;;;;;4.13;1.98;;;;;;;;;;5047221;28;20033;-66
2022/07/04 13:01:39;;;;;;;1.65;1.17;;;;;;;;;;5047420;28;20116;-67
2022/07/04 13:04:04;;;;;;;3.40;1.35;;;;;;;;;;5025170;28;20029;-72
2022/07/04 13:06:30;;;;;;;2.85;1.30;;;;;;;;;;5045163;28;20546;-67
2022/07/04 13:08:58;;;;;;;3.20;1.35;;;;;;;;;;5029430;28;20059;-68
2022/07/04 13:14:08;;;;;;;4.22;3.38;;;;;;;;;;5045077;28;20049;-68
2022/07/04 13:16:34;;;;;;;1.50;0.93;;;;;;;;;;5044151;28;20025;-66
2022/07/04 13:19:00;;;;;;;3.50;1.50;;;;;;;;;;5045656;28;20044;-67
2022/07/04 13:21:25;;;;;;;6.25;1.80;;;;;;;;;;5032614;28;20098;-68
2022/07/04 13:23:54;;;;;;;3.72;1.33;;;;;;;;;;5044303;28;20041;-68
2022/07/04 13:26:20;;;;;;;0.82;0.70;;;;;;;;;;5025981;28;20087;-68
2022/07/04 13:28:46;;;;;;;3.05;1.55;;;;;;;;;;5045363;28;20036;-68
2022/07/04 13:31:11;;;;;;;1.45;1.00;;;;;;;;;;5047328;28;20393;-68
2022/07/04 13:33:37;;;;;;;4.45;1.63;;;;;;;;;;5046516;28;20041;-67
2022/07/04 13:36:02;;;;;;;3.08;1.20;;;;;;;;;;5043219;28;20069;-68
2022/07/04 13:38:28;;;;;;;4.78;1.88;;;;;;;;;;5040288;28;20033;-67
2022/07/04 13:40:56;;;;;;;0.93;0.90;;;;;;;;;;5026636;28;20044;-67
2022/07/04 13:43:22;;;;;;;0.85;0.80;;;;;;;;;;5046371;28;20120;-68
2022/07/04 13:45:48;;;;;;;0.30;0.30;;;;;;;;;;5044945;28;20044;-71
2022/07/04 13:48:14;;;;;;;3.28;1.65;;;;;;;;;;5044583;28;20021;-69
2022/07/04 13:50:40;;;;;;;1.35;1.10;;;;;;;;;;5042190;28;20261;-68
2022/07/04 13:53:07;;;;;;;6.50;2.63;;;;;;;;;;5044701;28;20037;-68
2022/07/04 13:55:34;;;;;;;3.50;1.65;;;;;;;;;;5044924;28;20049;-69
2022/07/04 13:58:08;;;;;;;4.50;3.05;;;;;;;;;;5026309;28;20110;-66
2022/07/04 14:00:34;;;;;;;7.80;3.53;;;;;;;;;;5045114;28;20029;-68
2022/07/04 14:03:00;;;;;;;11.63;6.50;;;;;;;;;;5044194;28;20028;-68
2022/07/04 14:05:26;;;;;;;4.60;1.70;;;;;;;;;;5042573;28;20044;-66
2022/07/04 14:07:51;;;;;;;0.63;0.60;;;;;;;;;;5044177;28;20021;-66
2022/07/04 14:10:17;;;;;;;4.53;3.42;;;;;;;;;;5043867;28;20085;-69
2022/07/04 14:12:42;;;;;;;12.15;4.35;;;;;;;;;;5044542;28;20055;-71
2022/07/04 14:15:08;;;;;;;2.25;1.92;;;;;;;;;;5044889;28;20025;-67
2022/07/04 14:17:35;;;;;;;12.00;1.52;;;;;;;;;;5026453;28;20041;-67
2022/07/04 14:20:01;;;;;;;3.85;2.95;;;;;;;;;;5044473;28;20025;-67
2022/07/04 14:22:27;;;;;;;0.40;0.40;;;;;;;;;;5044500;28;20080;-68
2022/07/04 14:24:53;;;;;;;3.15;1.95;;;;;;;;;;5044649;28;20446;-67
2022/07/04 14:27:20;;;;;;;4.80;1.73;;;;;;;;;;5044237;28;20036;-69
2022/07/04 14:29:47;;;;;;;5.87;1.73;;;;;;;;;;5027422;28;20496;-70
2022/07/04 14:32:13;;;;;;;2.55;1.75;;;;;;;;;;5045005;28;20047;-68
2022/07/04 14:34:39;;;;;;;10.45;2.45;;;;;;;;;;5045887;28;20048;-69
2022/07/04 14:37:06;;;;;;;9.80;1.95;;;;;;;;;;5045163;28;20029;-66
2022/07/04 14:39:34;;;;;;;5.68;1.95;;;;;;;;;;5045543;28;20033;-68
2022/07/04 14:42:02;;;;;;;6.35;2.47;;;;;;;;;;5046505;28;20235;-66
2022/07/04 14:44:28;;;;;;;1.17;1.08;;;;;;;;;;5027410;28;20037;-67
2022/07/04 14:46:54;;;;;;;2.28;1.08;;;;;;;;;;5048161;28;20040;-67
2022/07/04 14:49:20;;;;;;;0.80;0.75;;;;;;;;;;5030043;28;20040;-68
2022/07/04 14:51:46;;;;;;;2.22;1.13;;;;;;;;;;5048210;28;20033;-66
2022/07/04 14:54:12;;;;;;;0.70;0.70;;;;;;;;;;5030143;28;20040;-66
2022/07/04 14:56:38;;;;;;;4.82;2.17;;;;;;;;;;5048004;28;20037;-66
2022/07/04 14:59:04;;;;;;;5.07;0.95;;;;;;;;;;5048296;28;20025;-67